Indianapolis, Indiana
Traffic Map
Current Weather Conditions
Indianapolis, Indiana
Scattered Clouds
Scattered Clouds
18°
Feels Like: 18°
Wind Chill: 18° Ceiling: Unl
Heat Index: 18° Visibility: 10mi
Dew Point: Wind: 6mph
Humidity: 56% Direction: 140° (SE)
Pressure: 30.15in Gusts: 0mph
Raw Report DataKIND 202354Z 14005KT 10SM SCT250 18/09 A3015 RMK AO2 SLP210 T01830094 10244 20183 56004
Traffic Incident Summary
Active as of:
Severity:
Category:
InformationThere was an issue retrieving the traffic information for this location. Please try a different location or try again shortly.
Advertisements